Estación de Illapel
Ultimos registro cada 15 minutos 80
| N° | Estación | Fecha / Hora | Temperatura | Humedad | Lluvia | Velocidad | Dirección | Radiación | Presion |
| 80 | Illapel | 09-05-2026 20:00 | 10,4 | 62 | 0 | 0 | 252 | 0 | 1008,3 |
| 79 | Illapel | 09-05-2026 19:45 | 10,8 | 63 | 0 | 0 | 254 | 0 | 1008,3 |
| 78 | Illapel | 09-05-2026 19:30 | 11,2 | 62 | 0 | 1,3 | 244 | 0 | 1008,3 |
| 77 | Illapel | 09-05-2026 19:15 | 11,8 | 61 | 0 | 0,4 | 255 | 0 | 1008,3 |
| 76 | Illapel | 09-05-2026 19:00 | 12,3 | 59 | 0 | 0,9 | 257 | 0 | 1008,3 |
| 75 | Illapel | 09-05-2026 18:45 | 12,8 | 58 | 0 | 0 | 254 | 0 | 1008,3 |
| 74 | Illapel | 09-05-2026 18:30 | 13,3 | 56 | 0 | 0,4 | 246 | 0 | 1008,3 |
| 73 | Illapel | 09-05-2026 18:15 | 13,8 | 54 | 0 | 1,3 | 242 | 0 | 1008,3 |
| 72 | Illapel | 09-05-2026 18:00 | 14,3 | 53 | 0 | 0,9 | 252 | 0 | 1008,3 |
| 71 | Illapel | 09-05-2026 17:45 | 15 | 51 | 0 | 2,2 | 239 | 7 | 1008,3 |
| 70 | Illapel | 09-05-2026 17:30 | 15,8 | 49 | 0 | 1,8 | 237 | 12 | 1008,3 |
| 69 | Illapel | 09-05-2026 17:15 | 16,4 | 48 | 0 | 0 | 249 | 16 | 1008,3 |
| 68 | Illapel | 09-05-2026 17:00 | 17,3 | 45 | 0 | 1,8 | 271 | 23 | 1008,3 |
| 67 | Illapel | 09-05-2026 16:45 | 17,8 | 44 | 0 | 0 | 287 | 162 | 1008,3 |
| 66 | Illapel | 09-05-2026 16:30 | 18 | 43 | 0 | 1,8 | 260 | 220 | 1008,3 |
| 65 | Illapel | 09-05-2026 16:15 | 18,3 | 41 | 0 | 1,3 | 242 | 264 | 1008,3 |
| 64 | Illapel | 09-05-2026 16:00 | 18,1 | 43 | 0 | 0,4 | 254 | 306 | 1008,3 |
| 63 | Illapel | 09-05-2026 15:45 | 18,2 | 42 | 0 | 2,2 | 239 | 346 | 1008,3 |
| 62 | Illapel | 09-05-2026 15:30 | 18,4 | 41 | 0 | 2,2 | 229 | 383 | 1008,3 |
| 61 | Illapel | 09-05-2026 15:15 | 19,4 | 38 | 0 | 2,7 | 201 | 418 | 1008,3 |
| 60 | Illapel | 09-05-2026 15:00 | 20,2 | 35 | 0 | 2,7 | 247 | 454 | 1008,3 |
| 59 | Illapel | 09-05-2026 14:45 | 20,5 | 33 | 0 | 2,2 | 249 | 485 | 1008,3 |
| 58 | Illapel | 09-05-2026 14:30 | 20,9 | 32 | 0 | 2,2 | 304 | 510 | 1008,3 |
| 57 | Illapel | 09-05-2026 14:15 | 21,8 | 30 | 0 | 0,9 | 307 | 541 | 1008,3 |
| 56 | Illapel | 09-05-2026 14:00 | 23,2 | 24 | 0 | 0,9 | 329 | 563 | 1008,3 |
| 55 | Illapel | 09-05-2026 13:45 | 23,6 | 22 | 0 | 0,4 | 338 | 485 | 1008,3 |
| 54 | Illapel | 09-05-2026 13:30 | 23,7 | 21 | 0 | 1,3 | 360 | 30 | 1008,3 |
| 53 | Illapel | 09-05-2026 13:15 | 23,4 | 23 | 0 | 0,9 | 13 | 30 | 1008,3 |
| 52 | Illapel | 09-05-2026 13:00 | 22,7 | 22 | 0 | 0,9 | 348 | 32 | 1008,3 |
| 51 | Illapel | 09-05-2026 12:45 | 22,5 | 24 | 0 | 1,8 | 337 | 33 | 1008,3 |
| 50 | Illapel | 09-05-2026 12:30 | 21,4 | 24 | 0 | 0 | 9 | 37 | 1008,3 |
| 49 | Illapel | 09-05-2026 12:15 | 20,9 | 25 | 0 | 0,4 | 6 | 40 | 1008,3 |
| 48 | Illapel | 09-05-2026 12:00 | 20,1 | 25 | 0 | 0,4 | 28 | 44 | 1008,3 |
| 47 | Illapel | 09-05-2026 11:45 | 19,4 | 27 | 0 | 0 | 33 | 44 | 1008,3 |
| 46 | Illapel | 09-05-2026 11:30 | 18,7 | 30 | 0 | 0 | 42 | 72 | 1008,3 |
| 45 | Illapel | 09-05-2026 11:15 | 17,7 | 32 | 0 | 0,4 | 41 | 536 | 1008,3 |
| 44 | Illapel | 09-05-2026 11:00 | 17,1 | 33 | 0 | 0 | 48 | 501 | 1008,3 |
| 43 | Illapel | 09-05-2026 10:45 | 16,4 | 35 | 0 | 0 | 52 | 496 | 1008,3 |
| 42 | Illapel | 09-05-2026 10:30 | 15,9 | 37 | 0 | 0 | 62 | 403 | 1008,3 |
| 41 | Illapel | 09-05-2026 10:15 | 14,9 | 40 | 0 | 0,9 | 61 | 438 | 1008,3 |
| 40 | Illapel | 09-05-2026 10:00 | 14 | 42 | 0 | 0 | 61 | 403 | 1008,3 |
| 39 | Illapel | 09-05-2026 09:45 | 12,4 | 45 | 0 | 0 | 52 | 239 | 1008,3 |
| 38 | Illapel | 09-05-2026 09:30 | 11,2 | 49 | 0 | 0 | 79 | 325 | 1008,3 |
| 37 | Illapel | 09-05-2026 09:15 | 10 | 52 | 0 | 0 | 94 | 285 | 1008,3 |
| 36 | Illapel | 09-05-2026 09:00 | 9,2 | 53 | 0 | 0 | 114 | 156 | 958,9 |
| 35 | Illapel | 09-05-2026 08:45 | 8 | 55 | 0 | 0,4 | 131 | 200 | 958,9 |
| 34 | Illapel | 09-05-2026 08:30 | 6,5 | 56 | 0 | 0 | 124 | 153 | 958,9 |
| 33 | Illapel | 09-05-2026 08:15 | 5,3 | 58 | 0 | 0 | 104 | 70 | 958,9 |
| 32 | Illapel | 09-05-2026 08:00 | 4,1 | 61 | 0 | 0 | 213 | 58 | 958,9 |
| 31 | Illapel | 09-05-2026 07:45 | 3,4 | 60 | 0 | 0 | 213 | 23 | 958,9 |
| 30 | Illapel | 09-05-2026 07:30 | 3,5 | 60 | 0 | 0 | 214 | 0 | 958,9 |
| 29 | Illapel | 09-05-2026 07:15 | 3,6 | 60 | 0 | 0 | 214 | 0 | 958,9 |
| 28 | Illapel | 09-05-2026 07:00 | 3,4 | 61 | 0 | 0 | 211 | 0 | 958,9 |
| 27 | Illapel | 09-05-2026 06:45 | 3,2 | 61 | 0 | 0 | 216 | 0 | 958,9 |
| 26 | Illapel | 09-05-2026 06:30 | 3,3 | 61 | 0 | 0 | 217 | 0 | 958,9 |
| 25 | Illapel | 09-05-2026 06:15 | 3,3 | 61 | 0 | 0 | 217 | 0 | 958,9 |
| 24 | Illapel | 09-05-2026 06:00 | 3,6 | 61 | 0 | 0 | 217 | 0 | 958,9 |
| 23 | Illapel | 09-05-2026 05:45 | 3,7 | 61 | 0 | 0 | 217 | 0 | 958,9 |
| 22 | Illapel | 09-05-2026 05:30 | 3,8 | 61 | 0 | 0 | 217 | 0 | 958,9 |
| 21 | Illapel | 09-05-2026 05:15 | 3,9 | 62 | 0 | 0 | 217 | 0 | 958,9 |
| 20 | Illapel | 09-05-2026 05:00 | 3,8 | 61 | 0 | 0 | 219 | 0 | 958,9 |
| 19 | Illapel | 09-05-2026 04:45 | 4,1 | 61 | 0 | 0 | 219 | 0 | 958,9 |
| 18 | Illapel | 09-05-2026 04:30 | 3,9 | 60 | 0 | 0 | 219 | 0 | 958,9 |
| 17 | Illapel | 09-05-2026 04:15 | 4,3 | 60 | 0 | 0 | 218 | 0 | 958,9 |
| 16 | Illapel | 09-05-2026 04:00 | 4,8 | 60 | 0 | 0 | 218 | 0 | 958,9 |
| 15 | Illapel | 09-05-2026 03:45 | 4,7 | 61 | 0 | 0 | 218 | 0 | 958,9 |
| 14 | Illapel | 09-05-2026 03:30 | 4,2 | 62 | 0 | 0 | 233 | 0 | 958,9 |
| 13 | Illapel | 09-05-2026 03:15 | 4,6 | 62 | 0 | 0 | 235 | 0 | 958,9 |
| 12 | Illapel | 09-05-2026 03:00 | 4,8 | 62 | 0 | 0 | 235 | 0 | 958,9 |
| 11 | Illapel | 09-05-2026 02:45 | 4,8 | 63 | 0 | 0 | 234 | 0 | 958,9 |
| 10 | Illapel | 09-05-2026 02:30 | 5,2 | 63 | 0 | 0 | 235 | 0 | 958,9 |
| 9 | Illapel | 09-05-2026 02:15 | 5,4 | 62 | 0 | 0 | 235 | 0 | 958,9 |
| 8 | Illapel | 09-05-2026 02:00 | 5,6 | 63 | 0 | 0 | 235 | 0 | 958,9 |
| 7 | Illapel | 09-05-2026 01:45 | 5,8 | 62 | 0 | 0 | 235 | 0 | 958,9 |
| 6 | Illapel | 09-05-2026 01:30 | 6 | 60 | 0 | 0 | 235 | 0 | 958,9 |
| 5 | Illapel | 09-05-2026 01:15 | 6,5 | 61 | 0 | 0 | 234 | 0 | 958,9 |
| 4 | Illapel | 09-05-2026 00:45 | 6,7 | 60 | 0 | 0 | 234 | 0 | 958,9 |
| 3 | Illapel | 09-05-2026 00:30 | 6,9 | 61 | 0 | 0 | 235 | 0 | 958,9 |
| 2 | Illapel | 09-05-2026 00:15 | 7,3 | 60 | 0 | 0 | 235 | 0 | 958,9 |
| 1 | Illapel | 09-05-2026 00:00 | 7,6 | 59 | 0 | 0 | 235 | 0 | 958,9 |